Time;durP1;ratioP1;P1;durP2;ratioP2;P2;SDS_P1;SDS_P2;PMS_P1;PMS_P2;Temp;Humidity;BMP_temperature;BMP_pressure;BME280_temperature;BME280_humidity;BME280_pressure;Samples;Min_cycle;Max_cycle;Signal;HPM_P1;HPM_P2
2021/12/16 00:03:31;;;;;;;23.57;20.30;;;8.70;1.00;10.00;102244.00;;;;4987040;28;20458;-77
2021/12/16 00:06:39;;;;;;;22.73;20.33;;;8.70;1.00;10.00;102250.00;;;;4993122;28;20474;-77
2021/12/16 00:09:03;;;;;;;21.10;18.90;;;8.70;1.00;9.90;102185.00;;;;4995487;28;20458;-77
2021/12/16 00:33:57;;;;;;;21.50;19.30;;;8.60;1.00;9.90;102249.00;;;;4992735;28;20470;-74
2021/12/16 00:36:26;;;;;;;22.40;19.03;;;8.60;1.00;9.90;102255.00;;;;4993092;28;20470;-75
2021/12/16 00:38:54;;;;;;;21.10;19.00;;;8.60;1.00;9.90;102242.00;;;;4989376;28;20446;-75
2021/12/16 00:41:25;;;;;;;22.03;19.80;;;8.60;1.00;9.90;102239.00;;;;4972607;28;20450;-76
2021/12/16 00:43:58;;;;;;;24.60;19.00;;;8.60;1.00;9.80;102258.00;;;;4969963;28;20443;-74
2021/12/16 00:49:38;;;;;;;21.73;19.10;;;8.50;1.00;9.70;102262.00;;;;4938540;29;20540;-75
2021/12/16 00:55:04;;;;;;;21.50;18.67;;;8.50;1.00;9.40;102255.00;;;;4977369;28;20474;-73
2021/12/16 00:57:34;;;;;;;20.90;18.70;;;8.40;1.00;9.60;102218.00;;;;4981047;28;20453;-74
2021/12/16 01:00:05;;;;;;;26.23;19.67;;;8.40;1.00;9.60;102268.00;;;;4977760;28;20455;-75
2021/12/16 01:02:56;;;;;;;21.30;19.00;;;8.40;1.00;9.60;102254.00;;;;4979599;28;20996;-74
2021/12/16 01:08:34;;;;;;;19.80;17.70;;;8.40;1.00;9.60;102257.00;;;;4989536;28;20462;-77
2021/12/16 01:37:40;;;;;;;22.10;18.50;;;8.40;1.00;9.70;102221.00;;;;5084670;27;20549;-73
2021/12/16 01:40:22;;;;;;;18.70;16.77;;;8.40;1.00;9.60;102271.00;;;;5060059;28;20450;-75
2021/12/16 01:45:53;;;;;;;19.80;17.80;;;8.30;1.00;9.50;102278.00;;;;5048541;28;20476;-74
2021/12/16 01:51:23;;;;;;;21.10;18.40;;;8.30;1.00;9.50;102279.00;;;;5086461;28;20523;-76
2021/12/16 01:57:15;;;;;;;18.50;16.60;;;8.20;1.00;9.50;102248.00;;;;5095255;27;21208;-73
2021/12/16 01:59:56;;;;;;;20.80;17.73;;;8.30;1.00;9.50;102275.00;;;;5072977;28;20447;-74
2021/12/16 02:02:36;;;;;;;19.10;17.20;;;8.30;1.00;9.60;102271.00;;;;5067137;28;20453;-74
2021/12/16 02:05:25;;;;;;;18.63;16.63;;;8.30;1.00;9.60;102278.00;;;;5063816;28;20995;-74
2021/12/16 02:08:20;;;;;;;19.30;17.30;;;8.30;1.00;9.50;102259.00;;;;5058744;28;20877;-74
2021/12/16 02:11:06;;;;;;;21.13;18.30;;;8.30;1.00;9.60;102247.00;;;;5066769;28;20451;-74
2021/12/16 02:27:44;;;;;;;19.03;17.13;;;8.30;1.00;9.40;102254.00;;;;5069714;28;20791;-73
2021/12/16 02:33:19;;;;;;;21.30;19.10;;;8.20;1.00;9.60;102267.00;;;;5043803;28;20459;-74
2021/12/16 02:36:00;;;;;;;19.10;16.73;;;8.30;1.00;9.60;102258.00;;;;5065186;28;20475;-74
2021/12/16 02:38:33;;;;;;;19.73;17.63;;;8.30;1.00;9.60;102259.00;;;;5088843;28;20550;-74
2021/12/16 02:41:02;;;;;;;19.30;17.40;;;8.30;1.00;9.60;102270.00;;;;5062635;28;20483;-73
2021/12/16 02:44:06;;;;;;;20.23;17.97;;;8.30;1.00;9.50;102250.00;;;;5085360;28;20443;-75
2021/12/16 02:49:25;;;;;;;19.70;17.60;;;8.30;1.00;9.50;102260.00;;;;5066029;28;20451;-73
2021/12/16 02:51:57;;;;;;;20.73;18.53;;;8.20;1.00;9.50;102276.00;;;;5062907;28;20455;-77
2021/12/16 02:54:28;;;;;;;20.43;17.20;;;8.30;1.00;9.50;102265.00;;;;5060338;28;20464;-75
2021/12/16 02:56:57;;;;;;;19.77;17.87;;;8.30;1.00;9.50;102255.00;;;;5079739;28;20992;-73
2021/12/16 02:59:28;;;;;;;19.67;17.63;;;8.30;1.00;9.60;102245.00;;;;5063692;28;20446;-74
2021/12/16 03:02:01;;;;;;;19.47;17.40;;;8.30;1.00;9.60;102265.00;;;;5066041;28;20469;-74
2021/12/16 03:04:30;;;;;;;21.70;18.13;;;8.30;1.00;9.60;102271.00;;;;5064697;28;20482;-75
2021/12/16 03:07:00;;;;;;;20.23;18.13;;;8.30;1.00;9.50;102273.00;;;;5056694;28;21022;-73
2021/12/16 03:12:47;;;;;;;20.37;18.27;;;8.30;1.00;9.50;102274.00;;;;5050424;28;20509;-74
2021/12/16 03:15:31;;;;;;;19.83;17.83;;;8.30;1.00;9.40;102265.00;;;;5047876;28;20476;-72
2021/12/16 03:18:06;;;;;;;20.90;18.37;;;8.20;1.00;9.50;102271.00;;;;5035121;28;20437;-73
2021/12/16 03:20:41;;;;;;;20.30;18.20;;;8.20;1.00;9.40;102258.00;;;;5047051;28;20478;-74
2021/12/16 03:23:28;;;;;;;20.60;18.60;;;8.20;1.00;9.40;102271.00;;;;5051457;28;20456;-74
2021/12/16 03:26:32;;;;;;;19.60;17.57;;;8.20;1.00;9.30;102262.00;;;;5053178;28;21015;-74
2021/12/16 03:34:58;;;;;;;20.80;18.60;;;8.10;1.00;9.40;102271.00;;;;5050093;28;21025;-75
2021/12/16 03:37:29;;;;;;;20.93;18.83;;;8.10;1.00;9.40;102246.00;;;;5052722;28;20459;-75
2021/12/16 03:40:01;;;;;;;20.53;18.37;;;8.10;1.00;9.40;102266.00;;;;5039939;28;20452;-74
2021/12/16 03:42:43;;;;;;;20.13;18.13;;;8.10;1.00;9.50;102265.00;;;;5046665;28;20987;-75
2021/12/16 03:48:08;;;;;;;20.07;18.07;;;8.20;1.00;9.50;102281.00;;;;5040215;28;20476;-74
2021/12/16 03:50:37;;;;;;;19.60;17.50;;;8.20;1.00;9.50;102277.00;;;;5042236;28;20548;-74
2021/12/16 03:53:07;;;;;;;21.47;19.17;;;8.20;1.00;9.50;102286.00;;;;5054464;28;20928;-76
2021/12/16 03:55:37;;;;;;;22.13;19.50;;;8.20;1.00;9.50;102246.00;;;;5044806;28;20480;-74
2021/12/16 03:58:08;;;;;;;23.97;19.30;;;8.20;1.00;9.50;102279.00;;;;5051900;28;20472;-74
2021/12/16 04:00:43;;;;;;;21.30;19.10;;;8.20;1.00;9.50;102282.00;;;;5048575;28;20456;-74
2021/12/16 04:03:13;;;;;;;21.27;19.07;;;8.20;1.00;9.50;102278.00;;;;5051480;28;20455;-73
2021/12/16 04:05:45;;;;;;;20.60;18.50;;;8.20;1.00;9.50;102287.00;;;;5050758;28;20570;-73
2021/12/16 04:08:15;;;;;;;20.87;18.60;;;8.20;1.00;9.50;102292.00;;;;5052058;28;20487;-73
2021/12/16 04:11:02;;;;;;;21.47;19.27;;;8.20;1.00;9.40;102297.00;;;;5052772;28;20481;-73
2021/12/16 04:13:53;;;;;;;20.90;18.70;;;8.20;1.00;9.40;102285.00;;;;5050655;28;20551;-73
2021/12/16 04:16:32;;;;;;;21.83;19.57;;;8.20;1.00;9.40;102297.00;;;;5046225;28;20490;-73
2021/12/16 04:19:07;;;;;;;22.43;20.10;;;8.10;1.00;9.40;102287.00;;;;5044647;28;20451;-75
2021/12/16 04:21:37;;;;;;;21.70;19.50;;;8.10;1.00;9.40;102296.00;;;;5054547;28;20443;-75
2021/12/16 04:24:07;;;;;;;22.50;19.60;;;8.20;1.00;9.40;102283.00;;;;5050695;28;20933;-74
2021/12/16 04:26:36;;;;;;;21.87;19.60;;;8.10;1.00;9.40;102294.00;;;;5049429;28;20451;-74
2021/12/16 04:29:07;;;;;;;22.10;19.90;;;8.10;1.00;9.40;102294.00;;;;5052342;28;20440;-74
2021/12/16 04:31:37;;;;;;;21.83;19.27;;;8.10;1.00;9.40;102291.00;;;;5042735;28;20468;-74
2021/12/16 04:34:08;;;;;;;21.73;18.50;;;8.10;1.00;9.40;102281.00;;;;5050563;28;20539;-74
2021/12/16 04:36:39;;;;;;;22.67;20.30;;;8.10;1.00;9.40;102291.00;;;;5051407;28;20555;-75
2021/12/16 04:39:14;;;;;;;20.87;18.67;;;8.10;1.00;9.30;102293.00;;;;5053588;28;20993;-73
2021/12/16 04:41:44;;;;;;;23.40;21.00;;;8.10;1.00;9.30;102275.00;;;;5052149;28;20539;-74
2021/12/16 04:44:16;;;;;;;21.90;19.80;;;8.10;1.00;9.30;102289.00;;;;5049527;28;20463;-74
2021/12/16 04:46:46;;;;;;;22.70;20.30;;;8.10;1.00;9.20;102300.00;;;;5056902;28;20467;-75
2021/12/16 04:49:17;;;;;;;22.57;20.17;;;8.10;1.00;9.30;102293.00;;;;5069598;28;20459;-74
2021/12/16 04:51:49;;;;;;;22.10;19.90;;;8.10;1.00;9.30;102298.00;;;;5055189;28;20470;-74
2021/12/16 04:54:22;;;;;;;24.07;21.33;;;8.10;1.00;9.40;102308.00;;;;5046908;28;20449;-72
2021/12/16 04:56:54;;;;;;;22.23;19.93;;;8.10;1.00;9.40;102317.00;;;;5041898;28;20484;-73
2021/12/16 04:59:25;;;;;;;23.03;20.70;;;8.10;1.00;9.40;102301.00;;;;5037510;28;20613;-73
2021/12/16 05:01:57;;;;;;;21.37;19.27;;;8.10;1.00;9.40;102317.00;;;;5053800;28;20460;-74
2021/12/16 05:04:45;;;;;;;23.30;20.83;;;8.10;1.00;9.40;102319.00;;;;5045653;28;20473;-73
2021/12/16 05:07:14;;;;;;;21.40;19.20;;;8.10;1.00;9.30;102322.00;;;;5047842;28;20995;-73
2021/12/16 05:10:04;;;;;;;22.40;20.10;;;8.10;1.00;9.30;102315.00;;;;5052665;28;20472;-73
2021/12/16 05:12:38;;;;;;;23.43;19.97;;;8.10;1.00;9.40;102321.00;;;;5056548;28;20468;-73
2021/12/16 05:15:13;;;;;;;23.03;20.67;;;8.10;1.00;9.40;102329.00;;;;5059181;28;20503;-74
2021/12/16 05:17:45;;;;;;;22.90;20.57;;;8.10;1.00;9.40;102320.00;;;;5068868;28;20467;-73
2021/12/16 05:20:17;;;;;;;22.60;20.20;;;8.10;1.00;9.30;102318.00;;;;5076869;28;20531;-75
2021/12/16 05:25:47;;;;;;;23.40;21.00;;;8.00;1.00;9.30;102318.00;;;;5072762;28;20501;-75
2021/12/16 05:28:21;;;;;;;26.20;23.43;;;8.00;1.00;9.30;102317.00;;;;5070229;28;20455;-73
2021/12/16 05:30:51;;;;;;;24.07;20.53;;;8.00;1.00;9.40;102330.00;;;;5041247;28;20514;-73
2021/12/16 05:33:23;;;;;;;21.80;19.50;;;8.00;1.00;9.40;102317.00;;;;5041766;28;21010;-74
2021/12/16 05:35:53;;;;;;;23.00;20.70;;;8.10;1.00;9.30;102327.00;;;;5051529;28;20506;-75
2021/12/16 05:38:23;;;;;;;22.70;20.40;;;8.10;1.00;9.40;102335.00;;;;5050682;28;20486;-75
2021/12/16 05:40:55;;;;;;;23.10;20.60;;;8.10;1.00;9.30;102336.00;;;;5048392;28;20448;-75
2021/12/16 05:43:33;;;;;;;22.37;20.23;;;8.10;1.00;9.20;102330.00;;;;5041841;28;20987;-74
2021/12/16 05:46:05;;;;;;;23.40;21.03;;;8.00;1.00;9.20;102325.00;;;;5047703;28;20901;-74
2021/12/16 05:48:38;;;;;;;24.27;21.00;;;8.00;1.00;9.20;102332.00;;;;5045330;28;20462;-74
2021/12/16 05:51:12;;;;;;;25.03;20.70;;;8.00;1.00;9.20;102327.00;;;;5049249;28;20500;-74
2021/12/16 05:53:43;;;;;;;23.77;21.17;;;8.00;1.00;9.30;102333.00;;;;5050741;28;20443;-74
2021/12/16 05:56:26;;;;;;;24.13;21.57;;;8.00;1.00;9.30;102335.00;;;;5042448;28;20492;-75
2021/12/16 05:58:55;;;;;;;23.80;21.40;;;8.00;1.00;9.40;102349.00;;;;5037942;28;20472;-74
2021/12/16 06:01:29;;;;;;;21.93;19.60;;;8.10;1.00;9.30;102335.00;;;;5046637;28;20458;-75
2021/12/16 06:03:58;;;;;;;22.10;19.80;;;8.10;1.00;9.40;102325.00;;;;5038367;28;20456;-75
2021/12/16 06:06:28;;;;;;;24.07;21.67;;;8.10;1.00;9.50;102337.00;;;;5040860;28;20498;-74
2021/12/16 06:08:58;;;;;;;24.43;21.93;;;8.10;1.00;9.60;102335.00;;;;5041034;28;20455;-75
2021/12/16 06:11:31;;;;;;;25.57;20.97;;;8.10;1.00;9.60;102356.00;;;;5050949;28;20444;-73
2021/12/16 06:14:11;;;;;;;23.43;20.33;;;8.20;1.00;9.60;102358.00;;;;5048424;28;20459;-73
2021/12/16 06:22:34;;;;;;;23.77;20.80;;;8.20;1.00;9.40;102356.00;;;;5040790;28;21084;-73
2021/12/16 06:27:56;;;;;;;22.53;20.23;;;8.10;1.00;9.50;102368.00;;;;5042826;28;20460;-73
2021/12/16 06:30:28;;;;;;;24.80;22.20;;;8.10;1.00;9.40;102371.00;;;;5038862;28;20782;-73
2021/12/16 06:32:58;;;;;;;24.20;21.80;;;8.10;1.00;9.30;102370.00;;;;5041753;28;20458;-73
2021/12/16 06:35:27;;;;;;;24.80;22.20;;;8.10;1.00;9.40;102374.00;;;;5050787;28;20460;-74
2021/12/16 06:37:56;;;;;;;24.67;22.10;;;8.10;1.00;9.30;102358.00;;;;5045283;28;20468;-74
2021/12/16 06:40:39;;;;;;;24.47;21.17;;;8.10;1.00;9.30;102317.00;;;;5056826;28;20456;-74
2021/12/16 06:43:28;;;;;;;23.87;21.37;;;8.00;1.00;9.30;102363.00;;;;5041440;28;20436;-74
2021/12/16 06:45:58;;;;;;;24.23;21.03;;;8.00;1.00;9.40;102378.00;;;;5051560;28;20509;-74
2021/12/16 06:48:31;;;;;;;24.23;21.37;;;8.00;1.00;9.40;102385.00;;;;5055264;28;20447;-74
2021/12/16 06:51:04;;;;;;;23.33;20.83;;;8.00;1.00;9.30;102378.00;;;;5055698;28;20436;-75
2021/12/16 06:53:45;;;;;;;23.30;20.90;;;8.10;1.00;9.30;102393.00;;;;5047380;28;20436;-74
2021/12/16 06:56:18;;;;;;;26.50;21.70;;;8.10;1.00;9.30;102387.00;;;;5047328;28;20452;-75
2021/12/16 06:58:50;;;;;;;22.27;19.93;;;8.00;1.00;9.30;102388.00;;;;5059129;28;20444;-75
2021/12/16 07:01:36;;;;;;;23.53;21.07;;;8.00;1.00;9.20;102371.00;;;;5075291;28;20435;-75
2021/12/16 07:04:09;;;;;;;24.60;22.10;;;8.00;1.00;9.20;102394.00;;;;5078775;28;20507;-76
2021/12/16 07:06:39;;;;;;;24.43;21.70;;;8.00;1.00;9.30;102409.00;;;;5061969;28;20441;-73
2021/12/16 07:09:13;;;;;;;23.87;21.33;;;8.00;1.00;9.40;102404.00;;;;5054842;28;20476;-74
2021/12/16 07:11:43;;;;;;;23.17;20.87;;;8.00;1.00;9.40;102415.00;;;;5054444;28;20528;-74
2021/12/16 07:14:15;;;;;;;24.60;22.00;;;8.10;1.00;9.40;102397.00;;;;5056748;28;20530;-74
2021/12/16 07:16:47;;;;;;;23.93;21.33;;;8.00;1.00;9.40;102433.00;;;;5049090;28;20452;-74
2021/12/16 07:19:17;;;;;;;23.57;21.13;;;8.10;1.00;9.40;102429.00;;;;5056794;28;20475;-73
2021/12/16 07:21:46;;;;;;;27.03;22.00;;;8.10;1.00;9.50;102432.00;;;;5048683;28;20437;-75
2021/12/16 07:24:18;;;;;;;23.33;20.80;;;8.10;1.00;9.50;102434.00;;;;5033710;28;20449;-75
2021/12/16 07:26:49;;;;;;;25.53;22.27;;;8.10;1.00;9.50;102445.00;;;;5052060;28;20860;-74
2021/12/16 07:29:18;;;;;;;23.57;21.07;;;8.20;1.00;9.60;102449.00;;;;5050666;28;20442;-75
2021/12/16 07:31:46;;;;;;;24.40;21.67;;;8.10;1.00;9.60;102440.00;;;;5055026;28;20805;-75
2021/12/16 07:34:16;;;;;;;25.43;21.63;;;8.20;1.00;9.50;102447.00;;;;5035113;28;20461;-75
2021/12/16 07:36:45;;;;;;;24.90;22.10;;;8.20;1.00;9.50;102449.00;;;;5046240;28;20440;-77
2021/12/16 07:39:17;;;;;;;25.17;22.47;;;8.10;1.00;9.30;102439.00;;;;5056615;28;20475;-75
2021/12/16 07:41:49;;;;;;;23.70;21.30;;;8.10;1.00;9.10;102434.00;;;;5059606;28;20456;-74
2021/12/16 07:44:18;;;;;;;24.40;21.90;;;8.00;1.00;9.10;102447.00;;;;5069234;28;20444;-73
2021/12/16 07:46:55;;;;;;;26.30;22.67;;;8.00;1.00;9.10;102420.00;;;;5066753;28;20439;-75
2021/12/16 07:49:28;;;;;;;24.93;22.43;;;7.90;1.00;9.10;102443.00;;;;5064238;28;20949;-76
2021/12/16 07:51:59;;;;;;;25.60;23.20;;;7.90;1.00;9.00;102451.00;;;;5047228;28;20463;-75
2021/12/16 07:54:28;;;;;;;25.00;22.40;;;7.90;1.00;9.00;102463.00;;;;5048891;28;20470;-75
2021/12/16 07:56:59;;;;;;;27.57;23.60;;;7.80;1.00;9.10;102460.00;;;;5044128;28;20463;-75
2021/12/16 07:59:31;;;;;;;25.43;22.73;;;7.90;1.00;9.10;102463.00;;;;5040964;28;20476;-74
2021/12/16 08:02:02;;;;;;;24.50;22.10;;;7.90;1.00;9.20;102461.00;;;;5043720;28;20790;-75
2021/12/16 08:04:39;;;;;;;25.47;22.77;;;7.90;1.00;9.20;102446.00;;;;5052724;28;20486;-77
2021/12/16 08:07:08;;;;;;;26.30;22.70;;;7.90;1.00;9.20;102448.00;;;;5047554;28;20452;-76
2021/12/16 08:09:40;;;;;;;26.73;23.50;;;8.00;1.00;9.30;102448.00;;;;5050627;28;20852;-74
2021/12/16 08:12:13;;;;;;;25.43;22.20;;;8.10;1.00;9.40;102444.00;;;;5046218;28;20879;-75
2021/12/16 08:14:42;;;;;;;24.30;21.70;;;8.10;1.00;9.50;102454.00;;;;5048842;28;21014;-76
2021/12/16 08:17:11;;;;;;;26.57;23.77;;;8.20;1.00;9.60;102458.00;;;;5038666;28;20462;-75
2021/12/16 08:19:41;;;;;;;26.27;23.50;;;8.30;1.00;9.70;102449.00;;;;5043826;28;20812;-76
2021/12/16 08:22:09;;;;;;;29.40;23.70;;;8.40;1.00;9.90;102457.00;;;;5041425;28;20464;-75
2021/12/16 08:24:38;;;;;;;27.80;22.30;;;8.40;1.00;10.00;102465.00;;;;5044181;28;20486;-75
2021/12/16 08:27:09;;;;;;;24.57;21.80;;;8.50;1.00;10.00;102444.00;;;;5044610;28;20452;-75
2021/12/16 08:29:38;;;;;;;27.33;22.67;;;8.50;1.00;10.10;102480.00;;;;5046853;28;20478;-77
2021/12/16 08:32:08;;;;;;;29.70;22.17;;;8.60;1.00;10.20;102464.00;;;;5048853;28;20799;-75
2021/12/16 08:34:39;;;;;;;26.93;21.20;;;8.70;1.00;10.10;102481.00;;;;5054284;28;20509;-74
2021/12/16 08:37:09;;;;;;;24.47;21.80;;;8.70;1.00;10.10;102474.00;;;;5049308;28;20444;-76
2021/12/16 08:39:39;;;;;;;25.07;22.40;;;8.70;1.00;10.00;102485.00;;;;5039217;28;20476;-75
2021/12/16 08:42:10;;;;;;;25.00;22.23;;;8.70;1.00;10.10;102478.00;;;;5046494;28;20462;-76
2021/12/16 08:44:39;;;;;;;24.10;21.70;;;8.70;1.00;10.00;102487.00;;;;5040654;28;20487;-75
2021/12/16 08:47:13;;;;;;;23.17;20.83;;;8.70;1.00;10.00;102489.00;;;;5047039;28;20490;-75
2021/12/16 08:49:42;;;;;;;23.23;20.93;;;8.70;1.00;9.90;102504.00;;;;5051086;28;20456;-75
2021/12/16 08:52:16;;;;;;;25.60;22.90;;;8.70;1.00;10.10;102515.00;;;;5054556;28;20452;-75
2021/12/16 08:54:44;;;;;;;25.20;22.60;;;8.70;1.00;10.20;102524.00;;;;5047632;28;20476;-75
2021/12/16 08:57:12;;;;;;;29.83;23.70;;;8.80;1.00;10.10;102534.00;;;;5055937;28;20464;-75
2021/12/16 08:59:43;;;;;;;26.40;23.03;;;8.80;1.00;10.30;102517.00;;;;5051354;28;21147;-75
2021/12/16 09:02:12;;;;;;;25.63;22.50;;;8.90;1.00;10.30;102526.00;;;;5051769;28;20486;-75
2021/12/16 09:04:41;;;;;;;27.13;22.07;;;9.10;1.00;10.40;102512.00;;;;5041485;28;21044;-75
2021/12/16 09:07:13;;;;;;;23.70;21.20;;;9.00;1.00;10.40;102525.00;;;;5048692;28;20451;-74
2021/12/16 09:09:43;;;;;;;24.10;20.27;;;9.10;1.00;10.50;102527.00;;;;5052245;28;20463;-75
2021/12/16 09:12:37;;;;;;;24.97;21.37;;;9.00;1.00;10.60;102526.00;;;;5054840;28;20454;-75
2021/12/16 09:15:07;;;;;;;25.77;21.60;;;9.10;1.00;10.60;102513.00;;;;5051371;28;20472;-74
2021/12/16 09:17:36;;;;;;;23.37;20.97;;;9.10;1.00;10.60;102517.00;;;;5051974;28;20451;-75
2021/12/16 09:20:08;;;;;;;24.67;22.17;;;9.00;1.00;10.60;102520.00;;;;5055053;28;20467;-76
2021/12/16 09:22:38;;;;;;;24.03;21.50;;;9.00;1.00;10.50;102514.00;;;;5054877;28;20436;-76
2021/12/16 09:25:07;;;;;;;32.30;23.10;;;9.00;1.00;10.40;102529.00;;;;5054070;28;20463;-75
2021/12/16 09:27:36;;;;;;;27.50;22.53;;;9.10;1.00;10.30;102522.00;;;;5050984;28;20455;-73
2021/12/16 09:30:07;;;;;;;24.27;21.53;;;9.00;1.00;10.30;102535.00;;;;5047509;28;20463;-74
2021/12/16 09:32:37;;;;;;;25.20;22.63;;;9.00;1.00;10.40;102539.00;;;;5046830;28;20468;-74
2021/12/16 09:35:08;;;;;;;26.27;22.40;;;9.10;1.00;10.40;102533.00;;;;5050585;28;20476;-75
2021/12/16 09:37:38;;;;;;;25.43;21.93;;;9.30;1.00;11.10;102518.00;;;;5048940;28;20467;-75
2021/12/16 09:40:12;;;;;;;25.07;20.70;;;9.80;1.00;11.60;102540.00;;;;5053246;28;20486;-76
2021/12/16 09:42:41;;;;;;;31.47;21.43;;;10.20;1.00;11.70;102538.00;;;;5053289;28;20488;-75
2021/12/16 09:45:12;;;;;;;22.17;19.77;;;10.40;1.00;11.90;102544.00;;;;5052118;28;20515;-75
2021/12/16 09:47:43;;;;;;;23.10;20.60;;;10.30;1.00;11.70;102548.00;;;;5045420;28;20536;-75
2021/12/16 09:50:17;;;;;;;22.87;20.53;;;10.20;1.00;11.70;102558.00;;;;5052683;28;20452;-77
2021/12/16 09:52:47;;;;;;;25.30;20.83;;;10.10;1.00;11.70;102551.00;;;;5043714;28;20452;-77
2021/12/16 09:55:15;;;;;;;24.63;20.60;;;10.10;1.00;11.80;102558.00;;;;5046565;28;20515;-75
2021/12/16 09:57:44;;;;;;;21.80;19.60;;;10.20;1.00;11.90;102540.00;;;;5040533;28;20456;-76
2021/12/16 10:00:18;;;;;;;22.70;20.00;;;10.30;1.00;12.00;102551.00;;;;5039203;28;20475;-75
2021/12/16 10:02:48;;;;;;;22.00;19.80;;;10.40;1.00;12.00;102523.00;;;;5043843;28;20464;-77
2021/12/16 10:05:17;;;;;;;23.07;20.70;;;10.40;1.00;11.90;102557.00;;;;5041059;28;20957;-76
2021/12/16 10:07:47;;;;;;;24.10;19.83;;;10.40;1.00;11.90;102555.00;;;;5049553;28;20452;-75
2021/12/16 10:10:23;;;;;;;33.20;20.53;;;10.50;1.00;12.10;102547.00;;;;5046415;28;20459;-75
2021/12/16 10:12:53;;;;;;;22.73;20.30;;;10.40;1.00;12.10;102535.00;;;;5050428;28;20466;-75
2021/12/16 10:18:14;;;;;;;22.90;19.50;;;10.40;1.00;12.00;102553.00;;;;5050606;28;20461;-74
2021/12/16 10:20:50;;;;;;;22.10;19.90;;;10.30;1.00;12.00;102563.00;;;;5039987;28;20479;-76
2021/12/16 10:23:25;;;;;;;23.07;20.53;;;10.30;1.00;11.90;102549.00;;;;5044185;28;20956;-75
2021/12/16 10:25:56;;;;;;;21.77;19.57;;;10.30;1.00;11.90;102534.00;;;;5049359;28;20475;-77
2021/12/16 10:28:27;;;;;;;22.50;20.10;;;10.30;1.00;11.90;102539.00;;;;5048632;28;20457;-76
2021/12/16 10:31:02;;;;;;;21.10;18.80;;;10.30;1.00;11.90;102542.00;;;;5052724;28;20472;-75
2021/12/16 10:33:36;;;;;;;25.43;21.30;;;10.30;1.00;11.70;102535.00;;;;5069644;28;20498;-75
2021/12/16 10:36:13;;;;;;;21.97;18.47;;;10.30;1.00;11.70;102538.00;;;;5060119;28;20497;-76
2021/12/16 10:38:47;;;;;;;24.87;20.07;;;10.20;1.00;11.70;102511.00;;;;5063265;28;20529;-73
2021/12/16 10:41:23;;;;;;;22.53;19.97;;;10.20;1.00;11.70;102535.00;;;;5063882;28;20513;-73
2021/12/16 10:43:55;;;;;;;23.80;20.87;;;10.20;1.00;11.60;102528.00;;;;5060847;28;20455;-75
2021/12/16 10:46:29;;;;;;;24.23;20.03;;;10.20;1.00;11.70;102535.00;;;;5049224;28;20994;-75
2021/12/16 10:49:00;;;;;;;22.97;20.47;;;10.20;1.00;11.80;102538.00;;;;5047277;28;20455;-78
2021/12/16 10:51:33;;;;;;;23.57;20.20;;;10.20;1.00;11.90;102524.00;;;;5045121;28;20464;-76
2021/12/16 10:54:21;;;;;;;22.37;19.30;;;10.20;1.00;11.90;102536.00;;;;5048073;28;20452;-76
2021/12/16 10:57:07;;;;;;;21.83;19.53;;;10.30;1.00;12.10;102523.00;;;;5052368;28;20455;-77
2021/12/16 10:59:39;;;;;;;26.93;18.83;;;10.40;1.00;12.20;102518.00;;;;5052377;28;20478;-78
2021/12/16 11:02:16;;;;;;;21.43;18.90;;;10.40;1.00;12.20;102527.00;;;;5055003;28;20460;-78
2021/12/16 11:04:50;;;;;;;20.63;18.43;;;10.50;1.00;12.30;102526.00;;;;5044848;28;20477;-79
2021/12/16 11:07:26;;;;;;;20.10;18.00;;;10.50;1.00;12.30;102518.00;;;;5052269;28;20464;-77
2021/12/16 11:10:10;;;;;;;21.83;19.63;;;10.50;1.00;12.30;102539.00;;;;5056683;28;20451;-77
2021/12/16 11:12:49;;;;;;;22.53;19.97;;;10.60;1.00;12.30;102535.00;;;;5070406;28;20459;-76
2021/12/16 11:15:27;;;;;;;24.50;20.57;;;10.60;1.00;12.30;102525.00;;;;5055771;28;20542;-77
2021/12/16 11:17:59;;;;;;;21.70;18.87;;;10.60;1.00;12.30;102527.00;;;;5050818;28;20456;-77
2021/12/16 11:20:38;;;;;;;21.27;19.17;;;10.60;1.00;12.30;102531.00;;;;5051597;28;20567;-77
2021/12/16 11:23:11;;;;;;;20.40;17.93;;;10.70;1.00;12.20;102523.00;;;;5051224;28;21146;-77
2021/12/16 11:25:44;;;;;;;20.70;18.50;;;10.70;1.00;12.20;102513.00;;;;5044315;28;20472;-76
2021/12/16 11:28:20;;;;;;;20.00;17.50;;;10.70;1.00;12.20;102515.00;;;;5037012;28;20576;-78
2021/12/16 11:30:54;;;;;;;20.27;18.10;;;10.70;1.00;12.30;102523.00;;;;5047738;28;20850;-77
2021/12/16 11:33:33;;;;;;;20.93;18.40;;;10.70;1.00;12.40;102507.00;;;;5043352;28;20529;-77
2021/12/16 11:36:09;;;;;;;20.90;18.67;;;10.70;1.00;12.30;102520.00;;;;5046768;28;20482;-78
2021/12/16 11:38:41;;;;;;;21.27;19.00;;;10.70;1.00;12.20;102525.00;;;;5055560;28;20542;-77
2021/12/16 11:41:26;;;;;;;21.43;18.10;;;10.70;1.00;12.20;102529.00;;;;5054896;28;20474;-79
2021/12/16 11:44:04;;;;;;;20.90;18.23;;;10.60;1.00;12.10;102529.00;;;;5049994;28;20531;-78
2021/12/16 11:46:37;;;;;;;23.40;18.73;;;10.60;1.00;12.20;102531.00;;;;5052461;28;20472;-77
2021/12/16 11:49:22;;;;;;;22.73;17.87;;;10.60;1.00;12.30;102483.00;;;;5053120;28;20479;-78
2021/12/16 11:51:59;;;;;;;21.13;18.83;;;10.70;1.00;12.30;102473.00;;;;5048935;28;20543;-77
2021/12/16 11:54:34;;;;;;;21.97;18.23;;;10.70;1.00;12.40;102523.00;;;;5053783;28;20528;-77
2021/12/16 11:57:12;;;;;;;22.80;19.30;;;10.80;1.00;12.50;102518.00;;;;5048033;28;20476;-76
2021/12/16 11:59:45;;;;;;;20.60;18.10;;;10.80;1.00;12.60;102524.00;;;;5048883;28;20456;-78
2021/12/16 12:02:27;;;;;;;21.73;19.50;;;10.90;1.00;12.60;102526.00;;;;5056355;28;20451;-78
2021/12/16 12:05:17;;;;;;;23.83;19.67;;;10.90;1.00;12.60;102521.00;;;;5045949;28;20480;-78
2021/12/16 12:07:49;;;;;;;23.17;19.70;;;10.90;1.00;12.70;102496.00;;;;5057528;28;20501;-79
2021/12/16 12:10:40;;;;;;;24.03;19.83;;;10.90;1.00;12.70;102522.00;;;;5055684;28;20547;-79
2021/12/16 12:13:14;;;;;;;28.17;20.00;;;11.00;1.00;12.60;102536.00;;;;5049698;28;20448;-78
2021/12/16 12:16:01;;;;;;;22.70;19.50;;;10.90;1.00;12.70;102530.00;;;;5045979;28;20488;-77
2021/12/16 12:18:40;;;;;;;23.00;20.27;;;11.00;1.00;12.60;102520.00;;;;5041130;28;20457;-76
2021/12/16 12:21:34;;;;;;;24.40;19.87;;;11.00;1.00;12.60;102519.00;;;;5042807;28;21118;-75
2021/12/16 12:24:10;;;;;;;24.70;19.80;;;11.00;1.00;12.50;102521.00;;;;5037558;28;20465;-78
2021/12/16 12:26:43;;;;;;;24.60;19.50;;;10.90;1.00;12.40;102509.00;;;;5043360;28;20463;-78
2021/12/16 12:29:19;;;;;;;24.03;21.23;;;10.90;1.00;12.30;102505.00;;;;5043103;28;20455;-77
2021/12/16 12:31:52;;;;;;;22.73;19.23;;;10.90;1.00;12.40;102505.00;;;;5051791;28;20793;-76
2021/12/16 12:34:22;;;;;;;24.50;21.97;;;10.90;1.00;12.40;102506.00;;;;5055429;28;20456;-75
2021/12/16 12:36:55;;;;;;;22.77;20.13;;;10.90;1.00;12.50;102510.00;;;;5048303;28;20451;-76
2021/12/16 12:39:29;;;;;;;24.37;20.97;;;11.00;1.00;12.60;102511.00;;;;5057854;28;20520;-77
2021/12/16 12:41:58;;;;;;;25.47;19.60;;;11.10;1.00;12.60;102510.00;;;;5069818;28;20534;-75
2021/12/16 12:44:28;;;;;;;24.97;21.47;;;11.10;1.00;12.60;102507.00;;;;5068894;28;20494;-76
2021/12/16 12:47:00;;;;;;;24.03;20.00;;;11.20;1.00;12.80;102503.00;;;;5067135;28;20483;-76
2021/12/16 12:49:30;;;;;;;22.00;19.73;;;11.30;1.00;13.00;102493.00;;;;5045025;28;20453;-74
2021/12/16 12:52:10;;;;;;;23.67;19.13;;;11.40;1.00;13.20;102501.00;;;;5051701;28;20543;-75
2021/12/16 12:54:42;;;;;;;27.90;20.00;;;11.60;1.00;13.40;102497.00;;;;5054688;28;20475;-75
2021/12/16 12:57:25;;;;;;;23.27;19.17;;;11.70;1.00;13.40;102501.00;;;;5054531;28;20464;-76
2021/12/16 12:59:57;;;;;;;26.50;19.77;;;11.80;1.00;13.30;102516.00;;;;5054559;28;20440;-75
2021/12/16 13:02:30;;;;;;;20.33;18.23;;;11.70;1.00;13.40;102506.00;;;;5053749;28;20535;-76
2021/12/16 13:05:05;;;;;;;22.07;18.97;;;11.60;1.00;13.20;102507.00;;;;5062057;28;20534;-77
2021/12/16 13:07:38;;;;;;;23.37;18.87;;;11.60;1.00;13.10;102517.00;;;;5072139;28;20454;-76
2021/12/16 13:10:12;;;;;;;21.10;18.80;;;11.50;1.00;13.10;102506.00;;;;5053474;28;20468;-76
2021/12/16 13:12:47;;;;;;;20.27;18.10;;;11.40;1.00;13.00;102516.00;;;;5038085;28;20464;-76
2021/12/16 13:15:43;;;;;;;28.00;19.77;;;11.30;1.00;12.80;102490.00;;;;5048326;28;20484;-75